createdAt,value
2022-12-11T00:00:15.387Z,42.50
2022-12-11T00:01:15.377Z,43.40
2022-12-11T00:02:15.472Z,41.30
2022-12-11T00:03:16.331Z,44.20
2022-12-11T00:04:15.348Z,44.60
2022-12-11T00:05:15.329Z,45.10
2022-12-11T00:06:15.328Z,45.20
2022-12-11T00:07:15.336Z,44.00
2022-12-11T00:08:15.358Z,44.50
2022-12-11T00:09:15.288Z,43.80
2022-12-11T00:10:15.310Z,43.60
2022-12-11T00:11:15.275Z,45.10
2022-12-11T00:12:15.310Z,43.80
2022-12-11T00:13:15.259Z,45.40
2022-12-11T00:14:15.259Z,46.20
2022-12-11T00:15:15.325Z,47.00
2022-12-11T00:16:15.337Z,46.80
2022-12-11T00:17:15.231Z,46.00
2022-12-11T00:18:15.223Z,46.60
2022-12-11T00:19:15.191Z,47.50
2022-12-11T00:20:15.192Z,46.90
2022-12-11T00:21:15.187Z,44.80
2022-12-11T00:22:15.190Z,43.90
2022-12-11T00:23:15.171Z,43.90
2022-12-11T00:24:15.154Z,44.40
2022-12-11T00:25:15.142Z,44.20
2022-12-11T00:26:15.132Z,41.20
2022-12-11T00:27:15.132Z,44.30
2022-12-11T00:28:15.115Z,42.80
2022-12-11T00:29:15.102Z,43.00
2022-12-11T00:30:15.112Z,40.90
2022-12-11T00:31:15.093Z,43.10
2022-12-11T00:32:15.140Z,43.90
2022-12-11T00:33:15.063Z,44.00
2022-12-11T00:34:15.061Z,44.30
2022-12-11T00:35:15.044Z,44.80
2022-12-11T00:36:15.035Z,42.00
2022-12-11T00:37:15.099Z,39.80
2022-12-11T00:38:15.013Z,36.80
2022-12-11T00:39:15.008Z,34.80
2022-12-11T00:40:14.996Z,36.30
2022-12-11T00:41:14.984Z,35.40
2022-12-11T00:42:14.997Z,35.80
2022-12-11T00:43:14.964Z,35.10
2022-12-11T00:44:14.956Z,40.50
2022-12-11T00:45:14.952Z,39.90
2022-12-11T00:46:14.982Z,37.50
2022-12-11T00:47:14.946Z,37.20
2022-12-11T00:48:14.925Z,37.70
2022-12-11T00:49:14.933Z,36.80
2022-12-11T00:50:14.907Z,36.90
2022-12-11T00:51:14.888Z,34.70
2022-12-11T00:52:14.898Z,35.30
2022-12-11T00:53:14.880Z,34.10
2022-12-11T00:54:14.857Z,35.50
2022-12-11T00:55:14.857Z,35.80
2022-12-11T00:56:14.837Z,37.50
2022-12-11T00:57:14.848Z,36.60
2022-12-11T00:58:14.818Z,36.50
2022-12-11T00:59:14.820Z,35.90
2022-12-11T01:00:14.798Z,36.90
2022-12-11T01:01:14.870Z,37.30
2022-12-11T01:02:14.800Z,36.70
2022-12-11T01:03:14.831Z,35.40
2022-12-11T01:04:14.761Z,35.20
2022-12-11T01:05:14.757Z,33.70
2022-12-11T01:06:14.740Z,33.70
2022-12-11T01:07:14.751Z,31.50
2022-12-11T01:08:14.781Z,32.60
2022-12-11T01:09:14.713Z,31.00
2022-12-11T01:10:14.746Z,31.00
2022-12-11T01:11:14.701Z,31.80
2022-12-11T01:12:14.704Z,30.80
2022-12-11T01:13:14.683Z,33.10
2022-12-11T01:14:14.673Z,33.40
2022-12-11T01:15:14.663Z,33.30
2022-12-11T01:16:14.731Z,34.50
2022-12-11T01:17:14.654Z,33.50
2022-12-11T01:18:14.622Z,34.10
2022-12-11T01:19:14.625Z,35.80
2022-12-11T01:20:14.601Z,34.40
2022-12-11T01:21:14.597Z,34.40
2022-12-11T01:22:14.595Z,36.10
2022-12-11T01:23:14.588Z,35.50
2022-12-11T01:24:14.563Z,36.10
2022-12-11T01:25:14.564Z,36.00
2022-12-11T01:26:14.552Z,36.60
2022-12-11T01:27:14.555Z,36.20
2022-12-11T01:28:14.525Z,35.90
2022-12-11T01:29:14.515Z,38.30
2022-12-11T01:30:14.513Z,35.80
2022-12-11T01:31:14.559Z,37.90
2022-12-11T01:32:14.498Z,35.70
2022-12-11T01:33:14.477Z,37.00
2022-12-11T01:34:14.469Z,35.80
2022-12-11T01:35:14.458Z,36.40
2022-12-11T01:36:14.455Z,36.70
2022-12-11T01:37:14.459Z,37.30
2022-12-11T01:38:14.428Z,38.80
2022-12-11T01:39:14.418Z,37.90
2022-12-11T01:40:14.408Z,39.10
2022-12-11T01:41:14.399Z,36.10
2022-12-11T01:42:14.408Z,38.60
2022-12-11T01:43:14.390Z,39.20
2022-12-11T01:44:14.369Z,38.00
2022-12-11T01:45:14.367Z,37.30
2022-12-11T01:46:14.382Z,37.70
2022-12-11T01:47:14.368Z,35.10
2022-12-11T01:48:14.329Z,35.60
2022-12-11T01:49:14.327Z,36.30
2022-12-11T01:50:14.307Z,35.60
2022-12-11T01:51:14.318Z,32.40
2022-12-11T01:52:14.320Z,35.80
2022-12-11T01:53:14.290Z,34.30
2022-12-11T01:54:14.291Z,35.20
2022-12-11T01:55:14.263Z,33.30
2022-12-11T01:56:14.252Z,34.70
2022-12-11T01:57:14.271Z,35.90
2022-12-11T01:58:14.231Z,34.90
2022-12-11T01:59:14.254Z,33.10
2022-12-11T02:00:14.221Z,35.10
2022-12-11T02:01:14.247Z,34.40
2022-12-11T02:02:14.271Z,34.20
2022-12-11T02:03:14.192Z,35.10
2022-12-11T02:04:14.173Z,34.60
2022-12-11T02:05:14.183Z,34.30
2022-12-11T02:06:14.144Z,34.10
2022-12-11T02:07:14.165Z,32.50
2022-12-11T02:08:14.206Z,34.20
2022-12-11T02:09:14.130Z,33.90
2022-12-11T02:10:14.139Z,33.30
2022-12-11T02:11:14.122Z,32.90
2022-12-11T02:12:14.137Z,32.00
2022-12-11T02:13:14.085Z,32.50
2022-12-11T02:14:14.096Z,30.50
2022-12-11T02:15:14.074Z,30.90
2022-12-11T02:16:14.112Z,31.40
2022-12-11T02:17:14.065Z,32.10
2022-12-11T02:18:14.036Z,32.90
2022-12-11T02:19:14.027Z,31.50
2022-12-11T02:20:14.025Z,31.30
2022-12-11T02:21:14.024Z,33.00
2022-12-11T02:22:14.017Z,30.50
2022-12-11T02:23:13.997Z,29.70
2022-12-11T02:24:13.979Z,31.00
2022-12-11T02:25:13.978Z,29.70
2022-12-11T02:26:13.957Z,30.30
2022-12-11T02:27:13.951Z,29.60
2022-12-11T02:28:13.958Z,28.60
2022-12-11T02:29:13.943Z,27.80
2022-12-11T02:30:13.928Z,23.90
2022-12-11T02:31:13.976Z,23.70
2022-12-11T02:32:13.904Z,23.50
2022-12-11T02:33:13.909Z,22.00
2022-12-11T02:34:13.882Z,22.40
2022-12-11T02:35:14.024Z,21.20
2022-12-11T02:36:13.859Z,23.00
2022-12-11T02:37:13.855Z,22.10
2022-12-11T02:38:13.872Z,21.00
2022-12-11T02:39:13.846Z,21.00
2022-12-11T02:40:13.822Z,20.30
2022-12-11T02:41:13.983Z,19.50
2022-12-11T02:42:13.801Z,20.70
2022-12-11T02:43:13.812Z,20.20
2022-12-11T02:44:13.790Z,19.20
2022-12-11T02:45:13.868Z,21.10
2022-12-11T02:46:13.857Z,18.40
2022-12-11T02:47:13.769Z,19.90
2022-12-11T02:48:13.764Z,20.00
2022-12-11T02:49:13.744Z,19.10
2022-12-11T02:50:13.724Z,18.70
2022-12-11T02:51:13.725Z,19.90
2022-12-11T02:52:13.712Z,19.50
2022-12-11T02:53:13.713Z,20.00
2022-12-11T02:54:13.681Z,19.00
2022-12-11T02:55:13.679Z,19.10
2022-12-11T02:56:13.662Z,20.30
2022-12-11T02:57:13.662Z,21.10
2022-12-11T02:58:13.655Z,20.00
2022-12-11T02:59:13.648Z,20.50
2022-12-11T03:00:13.626Z,20.70
2022-12-11T03:01:13.755Z,19.90
2022-12-11T03:02:13.670Z,19.80
2022-12-11T03:03:13.621Z,19.90
2022-12-11T03:04:13.586Z,21.10
2022-12-11T03:05:13.586Z,20.70
2022-12-11T03:06:13.576Z,20.90
2022-12-11T03:07:13.557Z,18.80
2022-12-11T03:08:13.575Z,19.70
2022-12-11T03:09:13.537Z,20.10
2022-12-11T03:10:13.528Z,20.20
2022-12-11T03:11:13.524Z,19.70
2022-12-11T03:12:13.518Z,19.90
2022-12-11T03:13:13.517Z,18.90
2022-12-11T03:14:13.489Z,19.20
2022-12-11T03:15:13.616Z,20.30
2022-12-11T03:16:13.518Z,21.20
2022-12-11T03:17:13.458Z,19.50
2022-12-11T03:18:13.458Z,19.80
2022-12-11T03:19:13.440Z,19.50
2022-12-11T03:20:13.439Z,20.10
2022-12-11T03:21:13.428Z,19.70
2022-12-11T03:22:13.408Z,20.60
2022-12-11T03:23:13.418Z,19.90
2022-12-11T03:24:13.401Z,20.50
2022-12-11T03:25:13.641Z,19.30
2022-12-11T03:26:13.368Z,18.80
2022-12-11T03:27:13.362Z,19.50
2022-12-11T03:28:13.361Z,20.70
2022-12-11T03:29:13.342Z,21.70
2022-12-11T03:30:13.363Z,20.90
2022-12-11T03:31:13.352Z,19.70
2022-12-11T03:32:13.306Z,20.70
2022-12-11T03:33:13.324Z,22.00
2022-12-11T03:34:13.289Z,20.50
2022-12-11T03:35:13.554Z,20.60
2022-12-11T03:36:13.263Z,21.20
2022-12-11T03:37:13.263Z,21.20
2022-12-11T03:38:13.264Z,20.80
2022-12-11T03:39:13.244Z,20.00
2022-12-11T03:40:13.231Z,21.30
2022-12-11T03:41:13.229Z,21.40
2022-12-11T03:42:13.213Z,19.60
2022-12-11T03:43:13.224Z,21.30
2022-12-11T03:44:13.194Z,20.40
2022-12-11T03:45:13.447Z,19.70
2022-12-11T03:46:13.231Z,20.50
2022-12-11T03:47:13.166Z,21.90
2022-12-11T03:48:13.166Z,21.30
2022-12-11T03:49:13.145Z,19.60
2022-12-11T03:50:13.130Z,19.70
2022-12-11T03:51:13.126Z,20.90
2022-12-11T03:52:13.114Z,22.20
2022-12-11T03:53:13.131Z,19.60
2022-12-11T03:54:13.096Z,19.40
2022-12-11T03:55:13.333Z,20.50
2022-12-11T03:56:13.078Z,20.50
2022-12-11T03:57:13.068Z,20.30
2022-12-11T03:58:13.068Z,20.60
2022-12-11T03:59:13.049Z,20.50
2022-12-11T04:00:13.029Z,20.30
2022-12-11T04:01:13.057Z,21.00
2022-12-11T04:02:13.053Z,20.50
2022-12-11T04:03:14.121Z,21.20
2022-12-11T04:04:13.020Z,22.20
2022-12-11T04:05:13.284Z,21.00
2022-12-11T04:06:12.969Z,20.80
2022-12-11T04:07:12.977Z,22.00
2022-12-11T04:08:13.029Z,22.30
2022-12-11T04:09:12.953Z,21.40
2022-12-11T04:10:12.940Z,21.00
2022-12-11T04:11:12.933Z,21.30
2022-12-11T04:12:12.911Z,22.50
2022-12-11T04:13:12.931Z,20.40
2022-12-11T04:14:12.891Z,20.80
2022-12-11T04:15:13.097Z,21.50
2022-12-11T04:16:12.877Z,22.90
2022-12-11T04:17:12.872Z,21.10
2022-12-11T04:18:12.873Z,20.80
2022-12-11T04:19:12.865Z,22.70
2022-12-11T04:20:12.835Z,21.90
2022-12-11T04:21:12.832Z,22.00
2022-12-11T04:22:12.816Z,22.20
2022-12-11T04:23:12.835Z,22.30
2022-12-11T04:24:12.794Z,22.30
2022-12-11T04:25:12.933Z,23.20
2022-12-11T04:26:12.783Z,21.60
2022-12-11T04:27:12.765Z,22.40
2022-12-11T04:28:12.785Z,21.70
2022-12-11T04:29:12.752Z,23.00
2022-12-11T04:30:12.739Z,22.30
2022-12-11T04:31:12.774Z,23.90
2022-12-11T04:32:12.724Z,24.00
2022-12-11T04:33:12.725Z,22.70
2022-12-11T04:34:12.696Z,23.10
2022-12-11T04:35:12.982Z,23.80
2022-12-11T04:36:12.675Z,22.30
2022-12-11T04:37:12.674Z,21.90
2022-12-11T04:38:12.678Z,23.30
2022-12-11T04:39:12.658Z,22.80
2022-12-11T04:40:12.649Z,23.10
2022-12-11T04:41:12.635Z,24.30
2022-12-11T04:42:12.618Z,23.00
2022-12-11T04:43:12.628Z,23.50
2022-12-11T04:44:12.598Z,22.80
2022-12-11T04:45:12.925Z,22.30
2022-12-11T04:46:12.626Z,25.10
2022-12-11T04:47:12.578Z,23.40
2022-12-11T04:48:12.586Z,23.40
2022-12-11T04:49:12.558Z,24.20
2022-12-11T04:50:12.548Z,24.90
2022-12-11T04:51:12.529Z,22.00
2022-12-11T04:52:12.531Z,23.00
2022-12-11T04:53:12.538Z,24.20
2022-12-11T04:54:12.501Z,23.60
2022-12-11T04:55:12.849Z,23.10
2022-12-11T04:56:12.480Z,23.60
2022-12-11T04:57:12.524Z,23.70
2022-12-11T04:58:12.480Z,24.00
2022-12-11T04:59:12.452Z,24.70
2022-12-11T05:00:12.441Z,25.10
2022-12-11T05:01:12.518Z,23.80
2022-12-11T05:02:12.422Z,23.80
2022-12-11T05:03:12.525Z,22.70
2022-12-11T05:04:12.402Z,23.90
2022-12-11T05:05:12.730Z,25.60
2022-12-11T05:06:12.389Z,25.60
2022-12-11T05:07:12.373Z,26.20
2022-12-11T05:08:12.408Z,23.70
2022-12-11T05:09:12.352Z,24.00
2022-12-11T05:10:12.373Z,24.20
2022-12-11T05:11:12.352Z,23.70
2022-12-11T05:12:12.325Z,23.90
2022-12-11T05:13:12.335Z,23.70
2022-12-11T05:14:12.315Z,25.40
2022-12-11T05:15:12.458Z,24.50
2022-12-11T05:16:12.825Z,24.60
2022-12-11T05:17:12.284Z,25.20
2022-12-11T05:18:12.295Z,25.10
2022-12-11T05:19:12.255Z,24.40
2022-12-11T05:20:12.253Z,24.20
2022-12-11T05:21:12.255Z,23.30
2022-12-11T05:22:12.232Z,23.70
2022-12-11T05:23:12.221Z,24.50
2022-12-11T05:24:12.227Z,23.40
2022-12-11T05:25:12.465Z,24.40
2022-12-11T05:26:12.196Z,24.60
2022-12-11T05:27:12.180Z,23.50
2022-12-11T05:28:12.178Z,22.70
2022-12-11T05:29:12.179Z,23.60
2022-12-11T05:30:12.148Z,23.80
2022-12-11T05:31:12.228Z,24.60
2022-12-11T05:32:12.147Z,25.30
2022-12-11T05:33:12.136Z,24.30
2022-12-11T05:34:12.129Z,25.00
2022-12-11T05:35:12.435Z,28.50
2022-12-11T05:36:12.101Z,28.70
2022-12-11T05:37:12.080Z,28.60
2022-12-11T05:38:12.077Z,27.40
2022-12-11T05:39:12.078Z,26.20
2022-12-11T05:40:12.059Z,26.40
2022-12-11T05:41:12.049Z,26.70
2022-12-11T05:42:12.040Z,26.90
2022-12-11T05:43:12.031Z,27.00
2022-12-11T05:44:12.032Z,26.80
2022-12-11T05:45:12.274Z,28.10
2022-12-11T05:46:12.115Z,26.80
2022-12-11T05:47:11.981Z,27.70
2022-12-11T05:48:11.973Z,28.70
2022-12-11T05:49:11.983Z,29.40
2022-12-11T05:50:11.952Z,28.40
2022-12-11T05:51:11.953Z,29.70
2022-12-11T05:52:11.933Z,26.80
2022-12-11T05:53:11.925Z,26.40
2022-12-11T05:54:11.944Z,25.30
2022-12-11T05:55:12.082Z,29.70
2022-12-11T05:56:11.905Z,30.20
2022-12-11T05:57:11.883Z,29.70
2022-12-11T05:58:11.874Z,30.40
2022-12-11T05:59:11.883Z,31.70
2022-12-11T06:00:11.864Z,30.40
2022-12-11T06:01:11.844Z,27.20
2022-12-11T06:02:11.956Z,24.70
2022-12-11T06:03:11.967Z,25.40
2022-12-11T06:04:11.834Z,25.40
2022-12-11T06:05:11.945Z,24.10
2022-12-11T06:06:11.795Z,23.40
2022-12-11T06:07:11.786Z,26.90
2022-12-11T06:08:11.817Z,26.90
2022-12-11T06:09:11.798Z,28.00
2022-12-11T06:10:11.809Z,27.60
2022-12-11T06:11:11.747Z,28.70
2022-12-11T06:12:11.745Z,27.00
2022-12-11T06:13:11.726Z,25.70
2022-12-11T06:14:11.738Z,25.50
2022-12-11T06:15:11.864Z,27.90
2022-12-11T06:16:11.753Z,28.20
2022-12-11T06:17:11.690Z,31.30
2022-12-11T06:18:11.679Z,38.40
2022-12-11T06:19:11.689Z,43.10
2022-12-11T06:20:11.670Z,41.40
2022-12-11T06:21:11.649Z,39.90
2022-12-11T06:22:11.646Z,36.80
2022-12-11T06:23:11.628Z,35.30
2022-12-11T06:24:11.640Z,32.70
2022-12-11T06:25:11.871Z,31.60
2022-12-11T06:26:11.776Z,29.80
2022-12-11T06:27:11.588Z,29.10
2022-12-11T06:28:11.588Z,31.90
2022-12-11T06:29:13.148Z,30.20
2022-12-11T06:30:11.562Z,30.30
2022-12-11T06:31:11.601Z,30.40
2022-12-11T06:32:11.549Z,27.70
2022-12-11T06:33:11.530Z,26.30
2022-12-11T06:34:11.543Z,27.20
2022-12-11T06:35:11.752Z,27.90
2022-12-11T06:36:11.501Z,27.20
2022-12-11T06:37:11.482Z,27.60
2022-12-11T06:38:12.324Z,27.80
2022-12-11T06:39:11.484Z,26.10
2022-12-11T06:40:11.473Z,25.90
2022-12-11T06:41:11.573Z,26.20
2022-12-11T06:42:11.443Z,27.30
2022-12-11T06:43:11.432Z,27.20
2022-12-11T06:44:11.445Z,26.40
2022-12-11T06:45:11.595Z,29.30
2022-12-11T06:46:11.444Z,31.20
2022-12-11T06:47:11.384Z,29.90
2022-12-11T06:48:11.385Z,28.10
2022-12-11T06:49:11.392Z,27.40
2022-12-11T06:50:11.375Z,28.40
2022-12-11T06:51:11.357Z,28.00
2022-12-11T06:52:16.618Z,26.20
2022-12-11T06:53:12.327Z,28.30
2022-12-11T06:54:11.356Z,28.90
2022-12-11T06:55:11.502Z,28.20
2022-12-11T06:56:11.315Z,26.80
2022-12-11T06:57:11.296Z,26.90
2022-12-11T06:58:11.286Z,27.60
2022-12-11T06:59:11.288Z,28.30
2022-12-11T07:00:11.227Z,28.10
2022-12-11T07:01:11.233Z,27.60
2022-12-11T07:02:11.269Z,27.90
2022-12-11T07:03:11.229Z,27.60
2022-12-11T07:04:11.248Z,27.30
2022-12-11T07:05:11.619Z,26.80
2022-12-11T07:06:11.208Z,27.80
2022-12-11T07:07:11.191Z,26.90
2022-12-11T07:08:11.238Z,27.60
2022-12-11T07:09:11.194Z,27.10
2022-12-11T07:10:11.169Z,28.40
2022-12-11T07:11:11.150Z,27.50
2022-12-11T07:12:11.151Z,27.70
2022-12-11T07:13:11.101Z,27.80
2022-12-11T07:14:11.150Z,27.40
2022-12-11T07:15:11.356Z,28.20
2022-12-11T07:16:11.298Z,28.70
2022-12-11T07:17:11.052Z,28.50
2022-12-11T07:18:11.042Z,28.30
2022-12-11T07:19:11.052Z,29.80
2022-12-11T07:20:11.012Z,28.90
2022-12-11T07:21:11.002Z,29.40
2022-12-11T07:22:11.001Z,28.70
2022-12-11T07:23:10.982Z,29.60
2022-12-11T07:24:10.993Z,34.40
2022-12-11T07:25:11.210Z,34.00
2022-12-11T07:26:10.962Z,35.10
2022-12-11T07:27:10.942Z,34.00
2022-12-11T07:28:15.213Z,32.30
2022-12-11T07:29:11.936Z,31.40
2022-12-11T07:30:10.924Z,32.30
2022-12-11T07:31:10.914Z,30.00
2022-12-11T07:32:11.037Z,30.00
2022-12-11T07:33:10.887Z,29.40
2022-12-11T07:34:10.906Z,31.20
2022-12-11T07:35:11.166Z,31.10
2022-12-11T07:36:10.864Z,31.10
2022-12-11T07:37:10.849Z,30.90
2022-12-11T07:38:10.839Z,31.80
2022-12-11T07:39:10.846Z,30.70
2022-12-11T07:40:10.836Z,31.10
2022-12-11T07:41:10.818Z,29.60
2022-12-11T07:42:10.804Z,32.40
2022-12-11T07:43:10.786Z,31.90
2022-12-11T07:44:10.796Z,35.30
2022-12-11T07:45:10.931Z,35.90
2022-12-11T07:46:10.833Z,35.00
2022-12-11T07:47:10.748Z,34.90
2022-12-11T07:48:10.748Z,35.70
2022-12-11T07:49:10.749Z,33.20
2022-12-11T07:50:10.726Z,33.20
2022-12-11T07:51:10.722Z,39.40
2022-12-11T07:52:10.700Z,41.10
2022-12-11T07:53:10.686Z,45.60
2022-12-11T07:54:10.702Z,44.10
2022-12-11T07:55:10.945Z,40.90
2022-12-11T07:56:10.670Z,40.70
2022-12-11T07:57:14.220Z,40.90
2022-12-11T07:58:10.642Z,40.40
2022-12-11T07:59:10.650Z,38.60
2022-12-11T08:00:10.630Z,38.30
2022-12-11T08:01:10.625Z,37.60
2022-12-11T08:02:10.657Z,37.80
2022-12-11T08:03:10.591Z,37.50
2022-12-11T08:04:10.606Z,34.80
2022-12-11T08:05:10.862Z,32.80
2022-12-11T08:06:10.563Z,33.90
2022-12-11T08:07:10.553Z,34.50
2022-12-11T08:08:10.592Z,33.60
2022-12-11T08:09:11.958Z,33.90
2022-12-11T08:10:10.523Z,33.60
2022-12-11T08:11:10.520Z,33.30
2022-12-11T08:12:10.504Z,33.20
2022-12-11T08:13:10.493Z,33.40
2022-12-11T08:14:10.505Z,35.30
2022-12-11T08:15:10.778Z,33.90
2022-12-11T08:16:10.464Z,33.40
2022-12-11T08:17:10.453Z,34.00
2022-12-11T08:18:10.448Z,34.70
2022-12-11T08:19:10.433Z,35.10
2022-12-11T08:20:10.445Z,33.60
2022-12-11T08:21:10.415Z,33.40
2022-12-11T08:22:10.406Z,35.60
2022-12-11T08:23:11.344Z,35.10
2022-12-11T08:24:10.389Z,33.40
2022-12-11T08:25:10.615Z,34.40
2022-12-11T08:26:10.366Z,34.00
2022-12-11T08:27:10.357Z,36.10
2022-12-11T08:28:10.347Z,34.70
2022-12-11T08:29:10.329Z,33.80
2022-12-11T08:30:10.346Z,35.40
2022-12-11T08:31:10.370Z,33.70
2022-12-11T08:32:12.481Z,35.90
2022-12-11T08:33:10.291Z,38.00
2022-12-11T08:34:10.291Z,37.70
2022-12-11T08:35:10.541Z,37.00
2022-12-11T08:36:10.290Z,38.00
2022-12-11T08:37:10.250Z,38.40
2022-12-11T08:38:10.258Z,38.70
2022-12-11T08:39:10.230Z,38.10
2022-12-11T08:40:10.243Z,38.40
2022-12-11T08:41:10.210Z,39.80
2022-12-11T08:42:10.208Z,39.80
2022-12-11T08:43:10.192Z,39.30
2022-12-11T08:44:15.807Z,40.00
2022-12-11T08:45:11.537Z,41.30
2022-12-11T08:46:10.232Z,40.50
2022-12-11T08:47:10.966Z,41.20
2022-12-11T08:48:10.142Z,40.30
2022-12-11T08:49:10.170Z,41.20
2022-12-11T08:50:10.149Z,41.50
2022-12-11T08:51:10.117Z,38.50
2022-12-11T08:52:10.120Z,38.90
2022-12-11T08:53:10.093Z,39.00
2022-12-11T08:54:10.093Z,37.90
2022-12-11T08:55:10.487Z,38.80
2022-12-11T08:56:10.072Z,40.80
2022-12-11T08:57:10.056Z,39.30
2022-12-11T08:58:10.053Z,39.80
2022-12-11T08:59:10.036Z,39.40
2022-12-11T09:00:10.045Z,37.80
2022-12-11T09:01:10.059Z,40.40
2022-12-11T09:02:10.081Z,41.30
2022-12-11T09:03:12.896Z,39.00
2022-12-11T09:04:09.993Z,39.60
2022-12-11T09:05:10.379Z,41.70
2022-12-11T09:06:09.967Z,41.40
2022-12-11T09:07:09.963Z,38.70
2022-12-11T09:08:09.994Z,41.70
2022-12-11T09:09:09.936Z,43.70
2022-12-11T09:10:09.946Z,41.90
2022-12-11T09:11:09.917Z,46.20
2022-12-11T09:12:09.908Z,87.30
2022-12-11T09:13:09.896Z,137.60
2022-12-11T09:14:09.888Z,108.50
2022-12-11T09:15:10.285Z,260.80
2022-12-11T09:16:09.900Z,232.40
2022-12-11T09:17:09.858Z,174.20
2022-12-11T09:18:09.859Z,91.50
2022-12-11T09:19:09.836Z,61.40
2022-12-11T09:20:09.849Z,48.20
2022-12-11T09:21:09.818Z,43.70
2022-12-11T09:22:09.812Z,42.40
2022-12-11T09:23:09.796Z,42.70
2022-12-11T09:24:09.791Z,41.50
2022-12-11T09:25:09.990Z,39.70
2022-12-11T09:26:09.768Z,41.50
2022-12-11T09:27:09.769Z,42.70
2022-12-11T09:28:09.742Z,40.70
2022-12-11T09:29:09.752Z,41.00
2022-12-11T09:30:09.764Z,40.20
2022-12-11T09:31:09.804Z,41.80
2022-12-11T09:32:09.711Z,43.30
2022-12-11T09:33:09.702Z,40.10
2022-12-11T09:34:09.693Z,45.20
2022-12-11T09:35:10.075Z,60.50
2022-12-11T09:36:09.663Z,56.80
2022-12-11T09:37:09.663Z,59.80
2022-12-11T09:38:09.654Z,47.30
2022-12-11T09:39:09.649Z,48.50
2022-12-11T09:40:09.654Z,45.70
2022-12-11T09:41:09.625Z,45.00
2022-12-11T09:42:09.636Z,58.20
2022-12-11T09:43:09.604Z,80.40
2022-12-11T09:44:09.587Z,74.40
2022-12-11T09:45:09.978Z,53.80
2022-12-11T09:46:09.592Z,47.10
2022-12-11T09:47:09.575Z,43.60
2022-12-11T09:48:09.556Z,41.70
2022-12-11T09:49:09.555Z,42.70
2022-12-11T09:50:09.553Z,43.60
2022-12-11T09:51:09.525Z,42.70
2022-12-11T09:52:09.509Z,44.40
2022-12-11T09:53:09.520Z,45.60
2022-12-11T09:54:09.488Z,43.50
2022-12-11T09:55:09.913Z,45.20
2022-12-11T09:56:09.477Z,46.90
2022-12-11T09:57:09.466Z,44.50
2022-12-11T09:58:09.471Z,44.80
2022-12-11T09:59:09.446Z,46.80
2022-12-11T10:00:09.450Z,45.70
2022-12-11T10:01:09.453Z,43.40
2022-12-11T10:02:09.446Z,44.80
2022-12-11T10:03:09.414Z,47.30
2022-12-11T10:04:09.389Z,44.90
2022-12-11T10:05:09.693Z,47.20
2022-12-11T10:06:09.370Z,49.40
2022-12-11T10:07:09.370Z,46.90
2022-12-11T10:08:09.386Z,45.50
2022-12-11T10:09:09.348Z,45.00
2022-12-11T10:10:09.350Z,45.40
2022-12-11T10:11:09.344Z,46.40
2022-12-11T10:12:09.312Z,46.20
2022-12-11T10:13:09.311Z,46.90
2022-12-11T10:14:09.293Z,47.40
2022-12-11T10:15:09.529Z,48.30
2022-12-11T10:16:09.309Z,45.20
2022-12-11T10:17:09.271Z,49.30
2022-12-11T10:18:09.252Z,46.60
2022-12-11T10:19:09.254Z,47.50
2022-12-11T10:20:09.252Z,47.90
2022-12-11T10:21:09.234Z,47.30
2022-12-11T10:22:09.214Z,46.80
2022-12-11T10:23:09.207Z,47.10
2022-12-11T10:24:09.193Z,49.80
2022-12-11T10:25:23.173Z,50.70
2022-12-11T10:26:10.184Z,47.00
2022-12-11T10:27:09.165Z,49.70
2022-12-11T10:28:09.154Z,50.40
2022-12-11T10:29:09.145Z,48.70
2022-12-11T10:30:09.155Z,49.60
2022-12-11T10:31:09.176Z,47.60
2022-12-11T10:32:09.117Z,47.80
2022-12-11T10:33:09.109Z,47.40
2022-12-11T10:34:09.096Z,48.00
2022-12-11T10:35:09.352Z,50.40
2022-12-11T10:36:09.068Z,48.50
2022-12-11T10:37:09.071Z,48.50
2022-12-11T10:38:09.057Z,48.90
2022-12-11T10:39:09.047Z,49.60
2022-12-11T10:40:09.049Z,55.00
2022-12-11T10:41:09.028Z,51.00
2022-12-11T10:42:09.008Z,51.20
2022-12-11T10:43:09.011Z,51.30
2022-12-11T10:44:08.999Z,51.20
2022-12-11T10:45:09.284Z,50.60
2022-12-11T10:46:09.011Z,49.30
2022-12-11T10:47:08.968Z,50.40
2022-12-11T10:48:08.957Z,50.90
2022-12-11T10:49:08.950Z,49.50
2022-12-11T10:50:08.953Z,52.50
2022-12-11T10:51:08.932Z,50.30
2022-12-11T10:52:08.910Z,50.60
2022-12-11T10:53:08.923Z,50.50
2022-12-11T10:54:08.891Z,51.50
2022-12-11T10:55:08.993Z,49.20
2022-12-11T10:56:08.881Z,48.60
2022-12-11T10:57:08.872Z,49.10
2022-12-11T10:58:08.852Z,50.50
2022-12-11T10:59:08.851Z,52.50
2022-12-11T11:00:08.867Z,49.50
2022-12-11T11:01:08.831Z,50.00
2022-12-11T11:02:08.813Z,52.30
2022-12-11T11:03:08.866Z,52.60
2022-12-11T11:04:08.803Z,52.10
2022-12-11T11:05:09.143Z,51.50
2022-12-11T11:06:08.801Z,51.40
2022-12-11T11:07:08.774Z,50.40
2022-12-11T11:08:08.793Z,52.70
2022-12-11T11:09:08.754Z,53.70
2022-12-11T11:10:08.757Z,52.00
2022-12-11T11:11:08.724Z,51.80
2022-12-11T11:12:08.725Z,51.80
2022-12-11T11:13:08.716Z,52.60
2022-12-11T11:14:08.697Z,54.10
2022-12-11T11:15:08.851Z,54.00
2022-12-11T11:16:08.720Z,50.00
2022-12-11T11:17:08.666Z,53.40
2022-12-11T11:18:08.686Z,59.50
2022-12-11T11:19:08.659Z,56.80
2022-12-11T11:20:08.656Z,57.70
2022-12-11T11:21:08.634Z,57.50
2022-12-11T11:22:08.623Z,57.50
2022-12-11T11:23:08.626Z,55.70
2022-12-11T11:24:08.606Z,52.60
2022-12-11T11:25:08.712Z,56.80
2022-12-11T11:26:08.577Z,56.30
2022-12-11T11:27:13.480Z,54.60
2022-12-11T11:28:09.559Z,56.40
2022-12-11T11:29:08.550Z,57.20
2022-12-11T11:30:08.558Z,53.40
2022-12-11T11:31:08.648Z,55.70
2022-12-11T11:32:08.519Z,52.30
2022-12-11T11:33:08.511Z,55.70
2022-12-11T11:34:08.501Z,57.90
2022-12-11T11:35:08.646Z,56.40
2022-12-11T11:36:08.478Z,53.50
2022-12-11T11:37:08.483Z,57.60
2022-12-11T11:38:08.462Z,56.40
2022-12-11T11:39:08.461Z,55.60
2022-12-11T11:40:08.452Z,56.20
2022-12-11T11:41:14.571Z,54.40
2022-12-11T11:42:09.423Z,57.20
2022-12-11T11:43:08.415Z,56.20
2022-12-11T11:44:08.402Z,56.90
2022-12-11T11:45:08.484Z,54.60
2022-12-11T11:46:08.441Z,56.70
2022-12-11T11:47:08.377Z,56.30
2022-12-11T11:48:11.541Z,54.90
2022-12-11T11:49:08.363Z,56.90
2022-12-11T11:50:08.364Z,56.00
2022-12-11T11:51:08.334Z,57.80
2022-12-11T11:52:08.324Z,57.50
2022-12-11T11:53:08.317Z,57.20
2022-12-11T11:54:08.301Z,57.80
2022-12-11T11:55:08.547Z,56.40
2022-12-11T11:56:08.274Z,58.10
2022-12-11T11:57:08.285Z,56.90
2022-12-11T11:58:08.259Z,56.80
2022-12-11T11:59:08.254Z,54.10
2022-12-11T12:00:08.275Z,55.90
2022-12-11T12:01:08.236Z,56.30
2022-12-11T12:02:08.225Z,56.30
2022-12-11T12:03:08.272Z,55.70
2022-12-11T12:04:08.197Z,57.70
2022-12-11T12:05:08.413Z,58.40
2022-12-11T12:06:13.454Z,58.40
2022-12-11T12:07:09.190Z,58.70
2022-12-11T12:08:08.194Z,57.60
2022-12-11T12:09:08.167Z,58.70
2022-12-11T12:10:08.180Z,58.40
2022-12-11T12:11:08.159Z,60.10
2022-12-11T12:12:08.128Z,61.10
2022-12-11T12:13:23.907Z,60.60
2022-12-11T12:14:22.779Z,57.70
2022-12-11T12:15:09.404Z,58.40
2022-12-11T12:16:29.292Z,58.30
2022-12-11T12:17:09.137Z,57.90
2022-12-11T12:18:08.059Z,58.40
2022-12-11T12:19:08.056Z,58.70
2022-12-11T12:20:08.038Z,56.70
2022-12-11T12:21:08.062Z,57.40
2022-12-11T12:22:08.024Z,58.20
2022-12-11T12:23:08.018Z,58.00
2022-12-11T12:24:08.002Z,59.60
2022-12-11T12:25:08.007Z,58.70
2022-12-11T12:26:08.003Z,60.40
2022-12-11T12:27:23.051Z,59.20
2022-12-11T12:28:08.961Z,58.30
2022-12-11T12:29:07.955Z,58.30
2022-12-11T12:30:07.942Z,59.60
2022-12-11T12:31:08.043Z,60.10
2022-12-11T12:32:07.923Z,58.40
2022-12-11T12:33:07.925Z,57.00
2022-12-11T12:34:07.913Z,58.30
2022-12-11T12:35:07.893Z,60.60
2022-12-11T12:36:07.900Z,58.70
2022-12-11T12:37:07.885Z,59.90
2022-12-11T12:38:07.863Z,59.70
2022-12-11T12:39:07.872Z,60.70
2022-12-11T12:40:07.843Z,58.80
2022-12-11T12:41:07.855Z,59.00
2022-12-11T12:42:08.126Z,58.90
2022-12-11T12:43:07.824Z,61.10
2022-12-11T12:44:07.824Z,59.60
2022-12-11T12:45:07.804Z,60.30
2022-12-11T12:46:07.858Z,60.30
2022-12-11T12:47:07.776Z,61.90
2022-12-11T12:48:07.764Z,59.30
2022-12-11T12:49:07.757Z,58.50
2022-12-11T12:50:07.746Z,58.00
2022-12-11T12:51:07.805Z,60.60
2022-12-11T12:52:07.736Z,58.90